createdAt,value
2022-10-14T00:00:31.175Z,4.20
2022-10-14T00:03:01.229Z,4.43
2022-10-14T00:05:32.301Z,4.50
2022-10-14T00:08:02.610Z,4.20
2022-10-14T00:10:31.590Z,4.83
2022-10-14T00:13:00.788Z,4.90
2022-10-14T00:15:29.549Z,5.07
2022-10-14T00:17:58.198Z,5.33
2022-10-14T00:20:29.843Z,5.53
2022-10-14T00:22:59.977Z,4.67
2022-10-14T00:25:29.014Z,5.00
2022-10-14T00:27:57.897Z,5.33
2022-10-14T00:30:28.076Z,5.80
2022-10-14T00:32:57.672Z,4.13
2022-10-14T00:35:26.461Z,4.70
2022-10-14T00:37:55.422Z,4.87
2022-10-14T00:40:25.547Z,4.90
2022-10-14T00:42:54.566Z,4.83
2022-10-14T00:45:25.097Z,4.20
2022-10-14T00:47:54.904Z,4.50
2022-10-14T00:50:24.103Z,4.50
2022-10-14T00:52:52.931Z,4.70
2022-10-14T00:55:21.815Z,4.30
2022-10-14T00:57:54.619Z,4.50
2022-10-14T01:00:23.876Z,4.30
2022-10-14T01:02:52.407Z,4.30
2022-10-14T01:05:21.888Z,4.27
2022-10-14T01:08:02.185Z,4.63
2022-10-14T01:10:41.237Z,4.13
2022-10-14T01:13:22.118Z,4.57
2022-10-14T01:16:00.684Z,3.40
2022-10-14T01:18:44.466Z,3.33
2022-10-14T01:21:19.536Z,4.33
2022-10-14T01:24:17.159Z,3.17
2022-10-14T01:27:12.030Z,3.20
2022-10-14T01:30:05.463Z,3.10
2022-10-14T01:32:38.375Z,2.90
2022-10-14T01:35:13.009Z,3.27
2022-10-14T01:37:49.020Z,2.73
2022-10-14T01:40:26.767Z,2.90
2022-10-14T01:42:56.073Z,3.20
2022-10-14T01:45:31.407Z,3.00
2022-10-14T01:48:01.535Z,2.47
2022-10-14T01:50:32.091Z,2.97
2022-10-14T01:53:04.972Z,3.00
2022-10-14T01:55:38.737Z,2.43
2022-10-14T01:58:09.324Z,2.30
2022-10-14T02:00:40.033Z,2.67
2022-10-14T02:03:15.117Z,2.43
2022-10-14T02:05:49.048Z,2.27
2022-10-14T02:08:24.653Z,2.40
2022-10-14T02:11:11.894Z,2.87
2022-10-14T02:13:46.819Z,2.20
2022-10-14T02:16:27.464Z,2.47
2022-10-14T02:19:00.718Z,2.60
2022-10-14T02:21:37.514Z,2.77
2022-10-14T02:24:08.095Z,2.40
2022-10-14T02:26:39.111Z,2.87
2022-10-14T02:29:08.590Z,2.70
2022-10-14T02:31:41.464Z,2.60
2022-10-14T02:34:14.620Z,2.30
2022-10-14T02:36:45.091Z,2.80
2022-10-14T02:39:16.008Z,3.13
2022-10-14T02:41:45.431Z,2.90
2022-10-14T02:44:13.945Z,2.83
2022-10-14T02:46:45.370Z,2.60
2022-10-14T02:49:14.209Z,2.83
2022-10-14T02:51:42.720Z,3.03
2022-10-14T02:54:11.205Z,3.10
2022-10-14T02:56:39.863Z,2.50
2022-10-14T02:59:08.935Z,2.97
2022-10-14T03:01:38.095Z,3.20
2022-10-14T03:04:10.549Z,2.50
2022-10-14T03:06:39.623Z,3.00
2022-10-14T03:09:09.458Z,3.00
2022-10-14T03:11:39.379Z,2.60
2022-10-14T03:14:10.110Z,2.87
2022-10-14T03:16:39.919Z,3.00
2022-10-14T03:19:13.487Z,2.70
2022-10-14T03:21:45.463Z,3.00
2022-10-14T03:24:18.009Z,3.00
2022-10-14T03:26:57.959Z,2.50
2022-10-14T03:29:27.108Z,3.20
2022-10-14T03:32:10.748Z,3.37
2022-10-14T03:34:49.536Z,3.17
2022-10-14T03:37:27.177Z,3.70
2022-10-14T03:39:57.228Z,3.10
2022-10-14T03:42:28.761Z,3.17
2022-10-14T03:48:07.044Z,3.50
2022-10-14T03:50:37.804Z,3.63
2022-10-14T03:53:15.114Z,3.33
2022-10-14T03:55:57.800Z,3.83
2022-10-14T04:01:13.771Z,3.90
2022-10-14T04:04:27.717Z,4.47
2022-10-14T04:07:27.371Z,4.40
2022-10-14T04:15:44.386Z,4.03
2022-10-14T04:18:34.569Z,4.17
2022-10-14T04:27:08.438Z,3.67
2022-10-14T04:29:47.776Z,3.87
2022-10-14T04:32:18.510Z,4.10
2022-10-14T04:34:52.857Z,4.00
2022-10-14T04:48:21.130Z,3.20
2022-10-14T04:58:04.114Z,3.20
2022-10-14T05:09:14.221Z,3.37
2022-10-14T05:14:25.446Z,3.43
2022-10-14T05:16:54.454Z,3.03
2022-10-14T05:19:23.149Z,3.73
2022-10-14T05:21:51.702Z,3.50
2022-10-14T06:45:04.857Z,2.77
2022-10-14T06:47:37.442Z,2.57
2022-10-14T07:03:56.765Z,2.80
2022-10-14T07:06:26.621Z,2.30
2022-10-14T07:09:02.283Z,2.60
2022-10-14T07:11:33.145Z,2.30
2022-10-14T07:14:04.238Z,2.30
2022-10-14T07:16:35.145Z,2.73
2022-10-14T07:19:07.605Z,2.60
2022-10-14T07:21:38.586Z,2.57
2022-10-14T07:27:55.116Z,2.50
2022-10-14T12:44:10.815Z,1.20
2022-10-14T12:47:05.523Z,1.33
2022-10-14T12:49:39.662Z,1.67
2022-10-14T12:53:00.118Z,1.10
2022-10-14T13:07:44.671Z,1.40
2022-10-14T13:10:53.333Z,1.53
2022-10-14T13:13:56.957Z,1.40
2022-10-14T13:17:19.810Z,1.27
2022-10-14T13:19:50.749Z,1.00
2022-10-14T13:22:44.016Z,1.07
2022-10-14T13:25:19.930Z,1.00
2022-10-14T13:28:13.746Z,1.27
2022-10-14T13:30:57.318Z,1.30
2022-10-14T13:36:40.417Z,1.17
2022-10-14T13:39:12.312Z,1.20
2022-10-14T13:41:42.070Z,1.30
2022-10-14T13:44:16.445Z,1.13
2022-10-14T13:46:49.406Z,1.20
2022-10-14T13:49:21.587Z,1.40
2022-10-14T13:51:53.050Z,1.40
2022-10-14T13:54:25.598Z,1.30
2022-10-14T14:02:56.741Z,1.30
2022-10-14T14:05:34.290Z,1.20
2022-10-14T14:08:34.820Z,1.10
2022-10-14T14:11:15.466Z,1.50
2022-10-14T14:13:55.902Z,1.80
2022-10-14T14:16:33.109Z,1.10
2022-10-14T14:19:10.263Z,1.37
2022-10-14T14:21:40.609Z,1.33
2022-10-14T14:24:19.409Z,1.33
2022-10-14T14:26:49.844Z,1.27
2022-10-14T14:29:41.113Z,1.57
2022-10-14T14:59:37.424Z,2.07
2022-10-14T15:02:14.076Z,1.80
2022-10-14T15:27:55.742Z,2.20
2022-10-14T15:30:36.106Z,2.10
2022-10-14T15:33:27.287Z,2.17
2022-10-14T15:44:50.645Z,2.13
2022-10-14T15:47:35.362Z,2.50
2022-10-14T15:50:26.185Z,2.30
2022-10-14T16:04:24.911Z,2.27
2022-10-14T16:06:57.896Z,2.63
2022-10-14T16:12:16.375Z,2.70
2022-10-14T16:14:46.782Z,2.83
2022-10-14T16:17:18.984Z,3.10
2022-10-14T16:19:57.567Z,3.00
2022-10-14T16:22:31.502Z,2.60
2022-10-14T16:25:02.909Z,2.73
2022-10-14T16:27:39.479Z,2.97
2022-10-14T16:30:13.171Z,2.80
2022-10-14T16:32:45.204Z,3.37
2022-10-14T16:35:27.443Z,3.30
2022-10-14T16:37:57.236Z,3.17
2022-10-14T16:40:26.322Z,3.50
2022-10-14T16:42:54.700Z,2.93
2022-10-14T16:45:23.565Z,3.10
2022-10-14T16:47:52.135Z,3.33
2022-10-14T16:50:23.213Z,3.17
2022-10-14T16:53:09.952Z,2.80
2022-10-14T16:55:55.441Z,3.20
2022-10-14T16:58:34.473Z,3.43
2022-10-14T17:01:10.037Z,4.00
2022-10-14T17:06:30.297Z,3.83
2022-10-14T17:09:05.131Z,3.80
2022-10-14T17:11:37.647Z,3.10
2022-10-14T17:17:04.376Z,3.20
2022-10-14T18:05:57.661Z,2.70
2022-10-14T18:08:27.491Z,2.20
2022-10-14T18:10:56.388Z,2.43
2022-10-14T18:13:27.384Z,2.37
2022-10-14T18:16:01.328Z,2.60
2022-10-14T18:18:33.249Z,2.33
2022-10-14T18:29:34.315Z,1.80
2022-10-14T18:57:46.631Z,2.20
2022-10-14T19:00:16.631Z,2.87
2022-10-14T19:02:45.882Z,2.27
2022-10-14T19:05:13.918Z,2.73
2022-10-14T19:07:42.036Z,2.30
2022-10-14T19:18:14.057Z,2.67
2022-10-14T19:20:46.436Z,1.97
2022-10-14T19:23:15.816Z,2.80
2022-10-14T19:25:54.810Z,2.43
2022-10-14T19:28:26.178Z,2.30
2022-10-14T19:30:57.694Z,2.40
2022-10-14T19:33:27.394Z,2.73
2022-10-14T19:36:02.269Z,2.57
2022-10-14T19:38:33.673Z,2.87
2022-10-14T19:41:04.329Z,2.63
2022-10-14T19:43:34.924Z,2.80
2022-10-14T19:46:11.407Z,2.47
2022-10-14T19:48:40.073Z,2.60
2022-10-14T19:51:10.563Z,2.50
2022-10-14T19:53:39.276Z,2.20
2022-10-14T19:56:09.277Z,2.27
2022-10-14T19:58:39.750Z,2.37
2022-10-14T20:01:11.964Z,2.07
2022-10-14T20:03:42.075Z,2.30
2022-10-14T20:06:13.970Z,1.70
2022-10-14T20:08:43.974Z,2.53
2022-10-14T20:11:14.987Z,2.10
2022-10-14T20:13:52.811Z,2.40
2022-10-14T20:16:26.083Z,2.37
2022-10-14T20:18:58.867Z,2.33
2022-10-14T20:21:31.789Z,5.93
2022-10-14T20:26:56.980Z,2.43
2022-10-14T22:39:45.334Z,2.50
2022-10-14T22:56:34.878Z,1.67
2022-10-14T23:12:03.432Z,2.10
2022-10-14T23:14:37.162Z,1.70
2022-10-14T23:17:39.052Z,1.70
2022-10-14T23:20:27.082Z,1.70
2022-10-14T23:25:36.942Z,1.83
2022-10-14T23:28:19.379Z,1.70
2022-10-14T23:30:51.695Z,1.40
2022-10-14T23:33:22.794Z,1.60
2022-10-14T23:35:57.174Z,1.37
2022-10-14T23:38:26.242Z,1.50
2022-10-14T23:41:00.300Z,1.80
2022-10-14T23:44:00.478Z,1.37
2022-10-14T23:46:29.909Z,1.67
2022-10-14T23:49:07.742Z,1.30
2022-10-14T23:51:44.854Z,1.50
2022-10-14T23:54:19.618Z,1.60
2022-10-14T23:56:49.226Z,1.70
2022-10-14T23:59:24.494Z,1.70
